createdAt,value
2022-11-10T00:02:11.610Z,2.60
2022-11-10T00:04:57.040Z,2.83
2022-11-10T00:07:42.501Z,2.28
2022-11-10T00:10:27.773Z,2.28
2022-11-10T00:13:13.290Z,2.53
2022-11-10T00:16:18.772Z,2.20
2022-11-10T00:19:04.150Z,1.85
2022-11-10T00:21:49.573Z,2.28
2022-11-10T00:24:34.948Z,2.38
2022-11-10T00:27:20.454Z,2.30
2022-11-10T00:30:06.515Z,2.45
2022-11-10T00:32:51.492Z,2.65
2022-11-10T00:35:36.885Z,2.10
2022-11-10T00:38:22.178Z,2.50
2022-11-10T00:41:07.591Z,2.60
2022-11-10T00:43:52.887Z,2.83
2022-11-10T00:46:38.352Z,2.83
2022-11-10T00:49:23.922Z,2.40
2022-11-10T00:52:09.209Z,3.42
2022-11-10T00:54:54.478Z,2.15
2022-11-10T00:57:39.795Z,2.22
2022-11-10T01:00:25.286Z,2.45
2022-11-10T01:03:18.555Z,3.35
2022-11-10T01:06:09.826Z,2.22
2022-11-10T01:08:55.079Z,2.53
2022-11-10T01:11:40.498Z,2.20
2022-11-10T01:14:25.913Z,2.55
2022-11-10T01:17:11.199Z,2.33
2022-11-10T01:19:56.606Z,2.05
2022-11-10T01:22:42.125Z,2.38
2022-11-10T01:25:27.516Z,2.40
2022-11-10T01:28:12.856Z,2.28
2022-11-10T01:30:59.992Z,2.30
2022-11-10T01:33:45.354Z,2.22
2022-11-10T01:36:30.460Z,2.53
2022-11-10T01:39:15.918Z,2.80
2022-11-10T01:42:01.434Z,3.22
2022-11-10T01:45:24.795Z,2.42
2022-11-10T01:48:15.701Z,2.58
2022-11-10T01:51:23.015Z,2.17
2022-11-10T01:54:15.610Z,2.55
2022-11-10T01:57:05.203Z,1.90
2022-11-10T01:59:50.641Z,2.10
2022-11-10T02:02:41.724Z,1.85
2022-11-10T02:05:27.020Z,1.92
2022-11-10T02:08:15.743Z,2.10
2022-11-10T02:11:00.956Z,2.38
2022-11-10T02:13:46.375Z,2.28
2022-11-10T02:16:32.026Z,2.05
2022-11-10T02:19:22.926Z,1.45
2022-11-10T02:22:08.382Z,2.35
2022-11-10T02:24:53.629Z,2.10
2022-11-10T02:27:39.177Z,2.00
2022-11-10T02:30:27.645Z,1.85
2022-11-10T02:33:13.039Z,1.67
2022-11-10T02:35:58.529Z,2.10
2022-11-10T02:38:43.944Z,2.00
2022-11-10T02:41:29.360Z,1.65
2022-11-10T02:44:14.842Z,2.10
2022-11-10T02:47:00.063Z,2.13
2022-11-10T02:49:45.629Z,3.65
2022-11-10T02:52:30.962Z,2.42
2022-11-10T02:55:16.504Z,2.08
2022-11-10T02:58:01.865Z,2.00
2022-11-10T03:00:47.191Z,1.50
2022-11-10T03:03:33.296Z,2.55
2022-11-10T03:06:18.751Z,2.10
2022-11-10T03:09:04.160Z,2.10
2022-11-10T03:11:49.391Z,1.80
2022-11-10T03:14:34.831Z,2.00
2022-11-10T03:17:20.315Z,1.90
2022-11-10T03:20:06.072Z,1.40
2022-11-10T03:22:51.143Z,1.35
2022-11-10T03:25:37.310Z,1.88
2022-11-10T03:28:22.278Z,1.77
2022-11-10T03:31:07.721Z,1.65
2022-11-10T03:33:53.020Z,1.63
2022-11-10T03:36:38.412Z,2.08
2022-11-10T03:39:24.330Z,2.05
2022-11-10T03:42:09.698Z,1.73
2022-11-10T03:44:55.228Z,2.75
2022-11-10T03:47:40.577Z,2.10
2022-11-10T03:50:25.919Z,1.90
2022-11-10T03:53:11.156Z,1.80
2022-11-10T03:55:59.648Z,1.63
2022-11-10T03:58:45.076Z,2.22
2022-11-10T04:01:30.489Z,2.35
2022-11-10T04:04:34.358Z,1.65
2022-11-10T04:07:38.226Z,1.77
2022-11-10T04:10:23.717Z,2.00
2022-11-10T04:13:27.527Z,1.85
2022-11-10T04:16:13.137Z,2.50
2022-11-10T04:18:58.202Z,2.60
2022-11-10T04:21:43.733Z,1.88
2022-11-10T04:24:29.249Z,2.20
2022-11-10T04:27:14.532Z,1.70
2022-11-10T04:29:59.979Z,1.77
2022-11-10T04:32:45.388Z,1.95
2022-11-10T04:35:30.715Z,1.75
2022-11-10T04:38:16.009Z,2.20
2022-11-10T04:41:01.764Z,2.20
2022-11-10T04:43:47.029Z,2.00
2022-11-10T04:46:36.418Z,2.30
2022-11-10T04:49:21.773Z,2.92
2022-11-10T04:52:07.194Z,2.25
2022-11-10T04:54:52.428Z,2.33
2022-11-10T04:57:37.898Z,2.35
2022-11-10T05:00:23.328Z,2.20
2022-11-10T05:03:11.528Z,2.30
2022-11-10T05:05:56.990Z,2.83
2022-11-10T05:08:43.396Z,2.30
2022-11-10T05:11:28.474Z,2.83
2022-11-10T05:14:13.984Z,2.60
2022-11-10T05:16:59.265Z,2.90
2022-11-10T05:19:44.671Z,3.00
2022-11-10T05:22:30.082Z,3.10
2022-11-10T05:25:15.588Z,2.78
2022-11-10T05:28:01.446Z,3.13
2022-11-10T05:30:46.501Z,3.33
2022-11-10T05:33:33.491Z,3.83
2022-11-10T05:36:18.630Z,3.38
2022-11-10T05:39:03.995Z,3.03
2022-11-10T05:41:49.490Z,3.40
2022-11-10T05:44:34.860Z,3.00
2022-11-10T05:47:20.331Z,2.80
2022-11-10T05:50:07.534Z,2.80
2022-11-10T05:52:54.863Z,3.75
2022-11-10T05:55:40.377Z,3.45
2022-11-10T05:58:26.006Z,2.65
2022-11-10T06:01:11.181Z,3.05
2022-11-10T06:03:56.596Z,3.38
2022-11-10T06:06:41.922Z,4.13
2022-11-10T06:09:27.438Z,3.55
2022-11-10T06:12:12.840Z,3.30
2022-11-10T06:14:58.398Z,2.97
2022-11-10T06:17:44.008Z,2.22
2022-11-10T06:20:29.664Z,2.90
2022-11-10T06:23:15.090Z,3.33
2022-11-10T06:26:00.321Z,3.40
2022-11-10T06:28:45.728Z,3.55
2022-11-10T06:31:31.073Z,2.67
2022-11-10T06:34:16.584Z,3.47
2022-11-10T06:37:02.192Z,3.30
2022-11-10T06:39:47.494Z,3.20
2022-11-10T06:42:33.012Z,3.17
2022-11-10T06:45:18.097Z,3.50
2022-11-10T06:48:11.157Z,3.72
2022-11-10T06:51:00.623Z,3.50
2022-11-10T06:53:46.084Z,4.00
2022-11-10T06:56:31.504Z,3.47
2022-11-10T06:59:16.948Z,4.63
2022-11-10T07:02:02.550Z,4.30
2022-11-10T07:04:50.606Z,5.70
2022-11-10T07:07:35.914Z,4.97
2022-11-10T07:10:21.377Z,4.47
2022-11-10T07:13:06.864Z,4.32
2022-11-10T07:15:52.400Z,4.32
2022-11-10T07:18:38.010Z,3.95
2022-11-10T07:21:23.685Z,4.60
2022-11-10T07:24:09.249Z,4.82
2022-11-10T07:26:54.599Z,4.40
2022-11-10T07:29:40.091Z,4.53
2022-11-10T07:32:25.620Z,4.43
2022-11-10T07:35:10.959Z,4.88
2022-11-10T07:38:03.423Z,4.53
2022-11-10T07:40:53.612Z,5.07
2022-11-10T07:43:39.045Z,5.88
2022-11-10T07:46:24.718Z,5.43
2022-11-10T07:49:09.976Z,6.28
2022-11-10T07:51:55.593Z,5.97
2022-11-10T07:54:41.340Z,6.25
2022-11-10T07:57:26.467Z,5.95
2022-11-10T08:00:15.162Z,6.25
2022-11-10T08:03:16.015Z,6.75
2022-11-10T08:06:01.016Z,5.63
2022-11-10T08:08:47.491Z,5.95
2022-11-10T08:11:32.567Z,5.75
2022-11-10T08:14:17.820Z,5.43
2022-11-10T08:17:03.245Z,6.57
2022-11-10T08:19:48.584Z,5.60
2022-11-10T08:22:33.777Z,5.65
2022-11-10T08:25:19.087Z,5.65
2022-11-10T08:28:13.196Z,5.80
2022-11-10T08:31:02.825Z,5.38
2022-11-10T08:33:50.895Z,6.72
2022-11-10T08:36:38.037Z,6.55
2022-11-10T08:39:38.252Z,5.28
2022-11-10T08:42:24.589Z,5.30
2022-11-10T08:45:10.343Z,7.55
2022-11-10T08:47:59.961Z,6.80
2022-11-10T08:50:45.811Z,5.40
2022-11-10T08:53:31.249Z,6.57
2022-11-10T08:56:16.507Z,6.38
2022-11-10T08:59:01.897Z,4.35
2022-11-10T09:01:47.273Z,4.85
2022-11-10T09:04:32.827Z,4.22
2022-11-10T09:07:18.202Z,3.88
2022-11-10T09:10:07.824Z,3.95
2022-11-10T09:12:53.725Z,4.22
2022-11-10T09:15:39.894Z,3.70
2022-11-10T09:18:24.969Z,3.13
2022-11-10T09:21:11.910Z,3.20
2022-11-10T09:23:57.232Z,3.40
2022-11-10T09:26:45.285Z,3.72
2022-11-10T09:29:30.627Z,3.85
2022-11-10T09:32:16.005Z,3.70
2022-11-10T09:35:01.958Z,3.75
2022-11-10T09:37:47.418Z,3.28
2022-11-10T09:40:48.169Z,3.90
2022-11-10T09:44:05.055Z,4.53
2022-11-10T09:47:12.447Z,3.67
2022-11-10T09:50:03.452Z,3.72
2022-11-10T09:52:50.033Z,2.70
2022-11-10T09:55:46.045Z,4.05
2022-11-10T09:58:40.090Z,2.70
2022-11-10T10:01:38.512Z,3.35
2022-11-10T10:04:52.225Z,3.00
2022-11-10T10:07:52.628Z,2.63
2022-11-10T10:10:45.643Z,2.17
2022-11-10T10:13:52.394Z,2.42
2022-11-10T10:16:48.798Z,2.75
2022-11-10T10:19:41.938Z,2.78
2022-11-10T10:22:30.141Z,2.60
2022-11-10T10:25:22.382Z,2.10
2022-11-10T10:28:43.035Z,2.70
2022-11-10T10:31:39.210Z,1.90
2022-11-10T10:34:28.025Z,3.13
2022-11-10T10:37:36.585Z,2.95
2022-11-10T10:40:24.695Z,2.45
2022-11-10T10:43:10.209Z,2.65
2022-11-10T10:46:15.755Z,2.30
2022-11-10T10:49:29.472Z,2.42
2022-11-10T10:52:17.262Z,2.88
2022-11-10T10:55:08.145Z,2.97
2022-11-10T10:58:00.362Z,3.10
2022-11-10T11:00:47.995Z,2.92
2022-11-10T11:03:48.293Z,3.85
2022-11-10T11:06:35.300Z,3.63
2022-11-10T11:09:29.810Z,2.90
2022-11-10T11:12:18.173Z,2.95
2022-11-10T11:15:29.545Z,3.10
2022-11-10T11:18:17.414Z,2.75
2022-11-10T11:21:21.292Z,2.63
2022-11-10T11:24:29.258Z,2.78
2022-11-10T11:27:28.380Z,2.80
2022-11-10T11:30:17.891Z,3.80
2022-11-10T11:33:32.516Z,4.30
2022-11-10T11:36:36.126Z,3.53
2022-11-10T11:39:50.904Z,4.25
2022-11-10T11:42:55.615Z,6.95
2022-11-10T11:45:49.762Z,4.85
2022-11-10T11:48:59.752Z,4.43
2022-11-10T11:51:56.421Z,4.57
2022-11-10T11:55:07.495Z,4.75
2022-11-10T11:58:23.964Z,3.88
2022-11-10T12:01:46.290Z,5.60
2022-11-10T12:04:40.656Z,3.35
2022-11-10T12:07:46.915Z,3.70
2022-11-10T12:10:47.665Z,4.78
2022-11-10T12:13:37.360Z,3.38
2022-11-10T12:16:47.231Z,2.90
2022-11-10T12:19:57.488Z,4.20
2022-11-10T12:23:01.552Z,3.03
2022-11-10T12:26:00.626Z,4.00
2022-11-10T12:28:51.596Z,2.83
2022-11-10T12:31:38.714Z,2.72
2022-11-10T12:34:26.673Z,2.90
2022-11-10T12:37:28.027Z,4.25
2022-11-10T12:40:17.764Z,4.90
2022-11-10T12:43:07.338Z,3.35
2022-11-10T12:45:57.777Z,3.88
2022-11-10T12:48:52.032Z,3.83
2022-11-10T12:51:55.980Z,4.93
2022-11-10T12:54:42.814Z,4.57
2022-11-10T12:57:30.057Z,4.45
2022-11-10T13:00:28.095Z,8.50
2022-11-10T13:03:24.063Z,4.65
2022-11-10T13:06:27.258Z,5.45
2022-11-10T13:09:24.366Z,4.20
2022-11-10T13:12:22.885Z,4.70
2022-11-10T13:15:39.236Z,3.28
2022-11-10T13:18:44.345Z,3.92
2022-11-10T13:21:51.487Z,4.43
2022-11-10T13:24:37.764Z,3.60
2022-11-10T13:27:38.254Z,4.45
2022-11-10T13:30:43.448Z,4.30
2022-11-10T13:33:37.402Z,4.63
2022-11-10T13:36:40.908Z,4.03
2022-11-10T13:39:29.422Z,4.20
2022-11-10T13:42:24.414Z,5.43
2022-11-10T13:45:32.938Z,5.07
2022-11-10T13:48:18.388Z,4.57
2022-11-10T13:51:25.224Z,4.43
2022-11-10T13:54:10.387Z,3.65
2022-11-10T13:57:31.281Z,3.45
2022-11-10T14:00:17.112Z,3.03
2022-11-10T14:03:04.752Z,2.15
2022-11-10T14:06:04.966Z,2.05
2022-11-10T14:08:53.234Z,1.98
2022-11-10T14:11:47.134Z,2.60
2022-11-10T14:14:49.127Z,3.85
2022-11-10T14:17:39.329Z,2.55
2022-11-10T14:20:42.548Z,2.70
2022-11-10T14:23:51.634Z,2.22
2022-11-10T14:26:54.877Z,2.35
2022-11-10T14:29:41.104Z,2.00
2022-11-10T14:32:26.549Z,2.47
2022-11-10T14:35:24.187Z,4.60
2022-11-10T14:38:43.129Z,2.63
2022-11-10T14:41:28.562Z,2.42
2022-11-10T14:44:22.113Z,2.28
2022-11-10T14:47:14.747Z,3.00
2022-11-10T14:50:13.679Z,2.72
2022-11-10T14:53:23.507Z,2.33
2022-11-10T14:56:20.743Z,2.78
2022-11-10T14:59:10.753Z,2.55
2022-11-10T15:01:59.543Z,2.88
2022-11-10T15:04:46.880Z,2.55
2022-11-10T15:07:32.463Z,3.22
2022-11-10T15:10:25.585Z,2.55
2022-11-10T15:13:13.978Z,3.10
2022-11-10T15:16:25.657Z,3.28
2022-11-10T15:19:46.089Z,2.92
2022-11-10T15:22:35.246Z,2.88
2022-11-10T15:25:23.345Z,2.80
2022-11-10T15:28:27.173Z,3.88
2022-11-10T15:31:21.169Z,3.75
2022-11-10T15:34:06.288Z,3.88
2022-11-10T15:37:09.726Z,3.47
2022-11-10T15:40:32.721Z,4.68
2022-11-10T15:43:24.384Z,4.60
2022-11-10T15:46:18.134Z,7.85
2022-11-10T15:49:03.930Z,5.95
2022-11-10T15:51:52.193Z,4.88
2022-11-10T15:54:38.213Z,4.85
2022-11-10T15:57:23.389Z,4.63
2022-11-10T16:00:12.330Z,5.22
2022-11-10T16:02:58.654Z,5.57
2022-11-10T16:05:44.576Z,5.38
2022-11-10T16:08:32.138Z,4.70
2022-11-10T16:11:19.996Z,5.05
2022-11-10T16:14:05.543Z,4.63
2022-11-10T16:16:50.682Z,4.57
2022-11-10T16:19:36.029Z,3.78
2022-11-10T16:22:21.498Z,4.20
2022-11-10T16:25:07.640Z,5.38
2022-11-10T16:27:52.961Z,5.35
2022-11-10T16:30:38.398Z,6.03
2022-11-10T16:33:24.563Z,5.97
2022-11-10T16:36:27.791Z,5.32
2022-11-10T16:39:15.615Z,5.38
2022-11-10T16:42:00.759Z,3.97
2022-11-10T16:44:45.973Z,3.42
2022-11-10T16:47:32.561Z,4.00
2022-11-10T16:50:32.247Z,4.13
2022-11-10T16:53:21.132Z,3.72
2022-11-10T16:56:12.124Z,3.58
2022-11-10T16:58:57.376Z,4.22
2022-11-10T17:01:45.647Z,3.42
2022-11-10T17:04:30.626Z,3.30
2022-11-10T17:07:26.173Z,3.40
2022-11-10T17:10:16.810Z,3.03
2022-11-10T17:13:01.851Z,2.97
2022-11-10T17:15:47.554Z,3.55
2022-11-10T17:18:34.566Z,3.10
2022-11-10T17:21:21.299Z,3.00
2022-11-10T17:24:07.900Z,2.83
2022-11-10T17:26:53.446Z,5.55
2022-11-10T17:29:38.908Z,8.05
2022-11-10T17:32:43.079Z,3.92
2022-11-10T17:35:29.231Z,6.60
2022-11-10T17:38:25.467Z,7.85
2022-11-10T17:41:19.097Z,8.95
2022-11-10T17:44:04.542Z,7.82
2022-11-10T17:46:49.837Z,8.05
2022-11-10T17:49:35.300Z,6.85
2022-11-10T17:52:20.575Z,7.65
2022-11-10T17:55:06.097Z,7.68
2022-11-10T17:57:51.418Z,5.72
2022-11-10T18:00:36.836Z,5.55
2022-11-10T18:03:23.257Z,5.82
2022-11-10T18:06:13.169Z,5.03
2022-11-10T18:08:58.387Z,6.35
2022-11-10T18:11:47.704Z,5.88
2022-11-10T18:14:34.374Z,5.40
2022-11-10T18:17:20.885Z,6.88
2022-11-10T18:20:07.003Z,7.13
2022-11-10T18:22:52.279Z,4.93
2022-11-10T18:25:39.736Z,3.85
2022-11-10T18:28:24.770Z,3.63
2022-11-10T18:31:13.033Z,4.07
2022-11-10T18:33:58.288Z,3.92
2022-11-10T18:36:43.826Z,7.78
2022-11-10T18:39:29.582Z,6.47
2022-11-10T18:42:14.855Z,6.65
2022-11-10T18:45:00.296Z,8.27
2022-11-10T18:47:45.617Z,6.00
2022-11-10T18:50:31.201Z,5.20
2022-11-10T18:53:16.535Z,3.70
2022-11-10T18:56:01.874Z,3.50
2022-11-10T18:58:56.178Z,3.30
2022-11-10T19:01:41.995Z,4.13
2022-11-10T19:04:27.515Z,4.80
2022-11-10T19:07:12.965Z,4.45
2022-11-10T19:09:58.316Z,5.55
2022-11-10T19:12:43.941Z,4.32
2022-11-10T19:15:29.278Z,3.22
2022-11-10T19:18:15.449Z,2.63
2022-11-10T19:21:08.904Z,3.05
2022-11-10T19:23:58.055Z,2.75
2022-11-10T19:26:43.159Z,2.83
2022-11-10T19:29:28.627Z,2.70
2022-11-10T19:32:14.110Z,5.18
2022-11-10T19:34:59.299Z,2.92
2022-11-10T19:37:44.749Z,3.13
2022-11-10T19:40:30.110Z,6.20
2022-11-10T19:43:15.520Z,8.52
2022-11-10T19:46:05.541Z,8.05
2022-11-10T19:48:51.458Z,9.50
2022-11-10T19:51:36.968Z,20.45
2022-11-10T19:54:22.324Z,20.88
2022-11-10T19:57:07.681Z,12.68
2022-11-10T19:59:53.238Z,10.70
2022-11-10T20:02:44.239Z,11.02
2022-11-10T20:05:30.896Z,11.07
2022-11-10T20:08:16.513Z,12.27
2022-11-10T20:11:06.277Z,10.38
2022-11-10T20:13:55.136Z,10.85
2022-11-10T20:16:40.773Z,12.13
2022-11-10T20:19:26.114Z,9.45
2022-11-10T20:22:12.700Z,8.20
2022-11-10T20:24:57.981Z,10.15
2022-11-10T20:27:43.423Z,13.40
2022-11-10T20:30:29.016Z,11.30
2022-11-10T20:33:14.113Z,10.05
2022-11-10T20:36:17.431Z,9.40
2022-11-10T20:39:05.360Z,8.90
2022-11-10T20:41:52.488Z,8.70
2022-11-10T20:44:37.936Z,8.30
2022-11-10T20:47:23.696Z,7.63
2022-11-10T20:50:14.769Z,7.70
2022-11-10T20:55:54.429Z,8.13
2022-11-10T20:58:40.884Z,8.77
2022-11-10T21:01:26.350Z,7.82
2022-11-10T21:04:12.102Z,7.75
2022-11-10T21:06:57.571Z,7.63
2022-11-10T21:09:42.925Z,7.60
2022-11-10T21:12:46.790Z,7.57
2022-11-10T21:15:32.168Z,6.28
2022-11-10T21:18:18.317Z,6.82
2022-11-10T21:21:04.916Z,8.13
2022-11-10T21:23:57.285Z,7.35
2022-11-10T21:26:42.686Z,7.15
2022-11-10T21:29:28.124Z,5.20
2022-11-10T21:32:13.333Z,5.65
2022-11-10T21:34:58.810Z,6.10
2022-11-10T21:37:44.188Z,6.00
2022-11-10T21:40:29.478Z,5.25
2022-11-10T21:43:14.867Z,5.45
2022-11-10T21:46:04.018Z,5.35
2022-11-10T21:48:52.588Z,5.10
2022-11-10T21:51:37.664Z,5.28
2022-11-10T21:54:22.981Z,5.47
2022-11-10T21:57:08.340Z,4.65
2022-11-10T21:59:53.881Z,4.25
2022-11-10T22:02:39.239Z,4.32
2022-11-10T22:05:24.830Z,4.38
2022-11-10T22:08:09.949Z,3.05
2022-11-10T22:11:13.825Z,6.13
2022-11-10T22:14:34.464Z,7.05
2022-11-10T22:17:38.175Z,5.72
2022-11-10T22:20:23.477Z,5.07
2022-11-10T22:23:08.764Z,5.78
2022-11-10T22:25:54.049Z,4.43
2022-11-10T22:28:39.769Z,5.32
2022-11-10T22:31:24.982Z,6.00
2022-11-10T22:34:10.537Z,5.28
2022-11-10T22:36:56.268Z,5.43
2022-11-10T22:39:59.712Z,5.53
2022-11-10T22:43:04.364Z,5.53
2022-11-10T22:45:49.791Z,5.10
2022-11-10T22:48:35.248Z,5.40
2022-11-10T22:51:20.851Z,5.00
2022-11-10T22:54:10.253Z,4.68
2022-11-10T22:56:55.728Z,5.28
2022-11-10T22:59:41.117Z,4.70
2022-11-10T23:02:27.510Z,5.22
2022-11-10T23:05:12.622Z,5.85
2022-11-10T23:07:58.050Z,5.25
2022-11-10T23:10:43.474Z,5.25
2022-11-10T23:13:28.877Z,4.97
2022-11-10T23:16:23.120Z,4.55
2022-11-10T23:19:10.944Z,4.90
2022-11-10T23:21:56.452Z,4.75
2022-11-10T23:24:41.347Z,3.95
2022-11-10T23:27:26.817Z,4.55
2022-11-10T23:30:12.325Z,3.75
2022-11-10T23:32:57.736Z,6.00
2022-11-10T23:35:43.048Z,4.07
2022-11-10T23:38:33.706Z,4.95
2022-11-10T23:41:23.330Z,4.15
2022-11-10T23:44:08.612Z,4.32
2022-11-10T23:46:54.028Z,4.60
2022-11-10T23:49:39.476Z,4.20
2022-11-10T23:52:24.840Z,3.80
2022-11-10T23:55:10.260Z,5.18
2022-11-10T23:57:55.593Z,3.95
